Time;durP1;ratioP1;P1;durP2;ratioP2;P2;SDS_P1;SDS_P2;PMS_P1;PMS_P2;Temp;Humidity;BMP_temperature;BMP_pressure;BME280_temperature;BME280_humidity;BME280_pressure;Samples;Min_cycle;Max_cycle;Signal;HPM_P1;HPM_P2
2023/12/21 00:01:54;;;;;;;21.45;6.13;;;;;;;7.88;100.00;100650.03;5062469;28;20085;-58
2023/12/21 00:04:19;;;;;;;21.58;6.50;;;;;;;7.86;100.00;100641.22;5052311;28;20163;-59
2023/12/21 00:06:44;;;;;;;23.05;6.20;;;;;;;7.88;100.00;100636.25;5056248;28;20025;-58
2023/12/21 00:09:09;;;;;;;19.98;6.55;;;;;;;7.87;100.00;100632.66;5061002;28;20032;-59
2023/12/21 00:11:36;;;;;;;24.40;7.03;;;;;;;7.79;100.00;100614.84;5065045;28;20436;-58
2023/12/21 00:14:02;;;;;;;22.60;6.13;;;;;;;7.85;100.00;100609.28;5067870;28;20511;-58
2023/12/21 00:16:27;;;;;;;21.15;6.60;;;;;;;7.86;100.00;100617.25;5069941;28;20150;-57
2023/12/21 00:18:53;;;;;;;22.50;6.20;;;;;;;7.85;100.00;100601.81;5051826;28;20025;-58
2023/12/21 00:21:18;;;;;;;20.70;5.97;;;;;;;7.83;100.00;100601.31;5057961;28;20055;-59
2023/12/21 00:23:44;;;;;;;19.83;6.05;;;;;;;7.85;100.00;100592.75;5071883;28;20074;-58
2023/12/21 00:26:09;;;;;;;22.15;6.82;;;;;;;7.86;100.00;100586.94;5067326;28;20033;-58
2023/12/21 00:28:35;;;;;;;21.40;6.93;;;;;;;7.84;100.00;100580.91;5063136;28;20078;-58
2023/12/21 00:31:01;;;;;;;21.98;6.47;;;;;;;7.84;100.00;100580.91;5069930;28;20111;-57
2023/12/21 00:33:26;;;;;;;22.48;6.43;;;;;;;7.83;100.00;100575.69;5059066;28;20364;-59
2023/12/21 00:35:51;;;;;;;23.00;6.35;;;;;;;7.84;100.00;100575.41;5069564;28;20040;-58
2023/12/21 00:38:17;;;;;;;19.88;5.63;;;;;;;7.85;100.00;100571.53;5067299;28;20071;-58
2023/12/21 00:40:42;;;;;;;20.80;6.78;;;;;;;7.85;100.00;100573.47;5050373;28;20540;-58
2023/12/21 00:43:07;;;;;;;19.27;6.00;;;;;;;7.84;100.00;100564.38;5066477;28;20407;-58
2023/12/21 00:45:32;;;;;;;20.55;6.30;;;;;;;7.85;100.00;100548.69;5052002;28;20033;-57
2023/12/21 00:47:58;;;;;;;20.95;5.72;;;;;;;7.85;100.00;100546.75;5051260;28;20037;-59
2023/12/21 00:50:23;;;;;;;18.27;5.30;;;;;;;7.85;100.00;100538.47;5050784;28;20516;-58
2023/12/21 00:52:48;;;;;;;21.75;6.32;;;;;;;7.84;100.00;100536.03;5050318;28;20044;-60
2023/12/21 00:55:14;;;;;;;21.95;5.57;;;;;;;7.85;100.00;100532.16;5069077;28;20047;-59
2023/12/21 00:57:39;;;;;;;20.50;5.70;;;;;;;7.85;100.00;100538.47;5058739;28;20056;-59
2023/12/21 01:00:05;;;;;;;21.45;5.63;;;;;;;7.85;100.00;100530.22;5064398;28;20052;-59
2023/12/21 01:02:30;;;;;;;19.42;5.80;;;;;;;7.86;100.00;100531.84;5061496;28;20054;-58
2023/12/21 01:04:55;;;;;;;22.13;5.70;;;;;;;7.86;100.00;100531.06;5070914;28;20435;-59
2023/12/21 01:07:21;;;;;;;22.23;6.40;;;;;;;7.85;100.00;100516.44;5064361;28;20116;-59
2023/12/21 01:09:46;;;;;;;20.83;6.25;;;;;;;7.87;100.00;100507.91;5061317;28;20029;-58
2023/12/21 01:12:11;;;;;;;20.52;5.60;;;;;;;7.84;100.00;100503.78;5061782;28;20043;-58
2023/12/21 01:14:37;;;;;;;19.00;5.43;;;;;;;7.85;100.00;100502.69;5070985;28;20207;-58
2023/12/21 01:17:02;;;;;;;22.65;6.10;;;;;;;7.84;100.00;100491.97;5053796;28;20025;-58
2023/12/21 01:19:28;;;;;;;21.67;5.85;;;;;;;7.87;100.00;100485.88;5050813;28;20476;-58
2023/12/21 01:21:53;;;;;;;22.73;6.68;;;;;;;7.87;100.00;100486.69;5042219;28;20037;-58
2023/12/21 01:24:18;;;;;;;20.88;5.95;;;;;;;7.85;100.00;100501.88;5049588;28;20136;-58
2023/12/21 01:26:44;;;;;;;20.95;5.97;;;;;;;7.86;100.00;100492.50;5051873;28;20056;-59
2023/12/21 01:29:09;;;;;;;19.63;6.05;;;;;;;7.87;100.00;100489.44;5036454;28;20061;-59
2023/12/21 01:31:34;;;;;;;21.35;6.30;;;;;;;7.86;100.00;100476.78;5034334;28;20053;-59
2023/12/21 01:34:01;;;;;;;23.25;6.50;;;;;;;7.86;100.00;100478.72;5049933;28;20111;-59
2023/12/21 01:36:26;;;;;;;20.02;6.50;;;;;;;7.87;100.00;100464.66;5066805;28;20032;-59
2023/12/21 01:38:52;;;;;;;19.08;5.63;;;;;;;7.88;100.00;100451.72;5052655;28;20029;-59
2023/12/21 01:41:17;;;;;;;21.05;6.13;;;;;;;7.87;100.00;100459.13;5054703;28;20033;-60
2023/12/21 01:43:42;;;;;;;21.48;5.57;;;;;;;7.89;100.00;100467.94;5052018;28;20033;-59
2023/12/21 01:46:09;;;;;;;22.00;6.57;;;;;;;7.89;100.00;100469.84;5068889;28;20448;-59
2023/12/21 01:48:36;;;;;;;20.98;5.85;;;;;;;7.91;100.00;100459.38;5061427;28;20040;-59
2023/12/21 01:51:04;;;;;;;22.20;5.75;;;;;;;7.91;100.00;100451.09;5051256;28;20480;-59
2023/12/21 01:53:32;;;;;;;22.20;6.35;;;;;;;7.88;100.00;100437.94;5050197;28;20033;-58
2023/12/21 01:55:59;;;;;;;22.67;6.50;;;;;;;7.90;100.00;100424.66;5053946;28;20024;-59
2023/12/21 01:58:25;;;;;;;21.85;6.10;;;;;;;7.89;100.00;100434.88;5052734;28;20105;-59
2023/12/21 02:00:50;;;;;;;19.55;5.57;;;;;;;7.90;100.00;100433.78;5053536;28;20029;-59
2023/12/21 02:03:16;;;;;;;21.45;6.05;;;;;;;7.91;100.00;100437.31;5063364;28;20492;-59
2023/12/21 02:05:41;;;;;;;19.75;6.03;;;;;;;7.92;100.00;100449.97;5054551;28;20463;-57
2023/12/21 02:08:07;;;;;;;21.88;6.65;;;;;;;7.90;100.00;100453.03;5058624;28;20090;-59
2023/12/21 02:10:32;;;;;;;20.52;6.45;;;;;;;7.88;100.00;100454.47;5070426;28;20025;-59
2023/12/21 02:12:58;;;;;;;21.00;6.72;;;;;;;7.90;100.00;100449.47;5068555;28;20034;-59
2023/12/21 02:15:23;;;;;;;23.65;6.57;;;;;;;7.90;100.00;100457.72;5064343;28;20421;-59
2023/12/21 02:17:50;;;;;;;23.40;7.07;;;;;;;7.89;100.00;100447.81;5054457;28;20112;-58
2023/12/21 02:20:17;;;;;;;22.65;6.57;;;;;;;7.92;100.00;100438.97;5050231;28;20025;-59
2023/12/21 02:22:44;;;;;;;20.65;6.25;;;;;;;7.94;100.00;100434.78;5054526;28;20050;-59
2023/12/21 02:25:09;;;;;;;24.35;6.70;;;;;;;7.90;100.00;100431.00;5070435;28;20025;-59
2023/12/21 02:27:35;;;;;;;26.10;6.95;;;;;;;7.92;100.00;100430.72;5057123;28;20497;-58
2023/12/21 02:30:00;;;;;;;23.83;6.60;;;;;;;7.90;100.00;100414.50;5055451;28;20079;-58
2023/12/21 02:32:25;;;;;;;20.98;6.63;;;;;;;7.91;100.00;100409.78;5050510;28;20549;-59
2023/12/21 02:34:51;;;;;;;21.83;6.75;;;;;;;7.90;100.00;100405.38;5066221;28;20045;-58
2023/12/21 02:37:18;;;;;;;22.38;6.70;;;;;;;7.91;100.00;100396.00;5057650;28;20083;-58
2023/12/21 02:39:43;;;;;;;24.17;6.82;;;;;;;7.90;100.00;100395.22;5066908;28;20043;-58
2023/12/21 02:42:09;;;;;;;23.38;7.50;;;;;;;7.88;100.00;100389.16;5073755;28;20425;-59
2023/12/21 02:44:34;;;;;;;22.20;6.95;;;;;;;7.90;100.00;100386.94;5063785;28;20368;-59
2023/12/21 02:46:59;;;;;;;25.75;6.97;;;;;;;7.87;100.00;100382.03;5062747;28;20044;-58
2023/12/21 02:49:24;;;;;;;25.05;7.35;;;;;;;7.91;100.00;100382.25;5073581;28;20340;-59
2023/12/21 02:51:50;;;;;;;21.30;5.95;;;;;;;7.89;100.00;100389.97;5071454;28;20071;-58
2023/12/21 02:54:15;;;;;;;22.48;6.85;;;;;;;7.87;100.00;100393.03;5065816;28;20029;-59
2023/12/21 02:56:41;;;;;;;22.60;6.22;;;;;;;7.89;100.00;100379.78;5052425;28;20447;-59
2023/12/21 02:59:06;;;;;;;23.40;6.30;;;;;;;7.89;100.00;100354.19;5055579;28;20036;-58
2023/12/21 03:01:31;;;;;;;26.85;7.22;;;;;;;7.90;100.00;100364.91;5065117;28;20020;-58
2023/12/21 03:03:59;;;;;;;23.45;6.10;;;;;;;7.91;100.00;100361.03;5068217;28;20520;-58
2023/12/21 03:06:25;;;;;;;26.38;6.18;;;;;;;7.90;100.00;100356.66;5073154;28;20029;-58
2023/12/21 03:08:50;;;;;;;20.15;6.20;;;;;;;7.91;100.00;100361.03;5061768;28;20373;-59
2023/12/21 03:11:15;;;;;;;21.50;6.32;;;;;;;7.91;100.00;100341.75;5059510;28;20075;-58
2023/12/21 03:13:41;;;;;;;21.17;5.80;;;;;;;7.92;100.00;100332.38;5040893;28;20124;-58
2023/12/21 03:16:06;;;;;;;22.02;6.22;;;;;;;7.91;100.00;100329.91;5054441;28;20119;-58
2023/12/21 03:18:32;;;;;;;23.48;6.07;;;;;;;7.93;100.00;100311.16;5052421;28;20052;-59
2023/12/21 03:20:57;;;;;;;21.70;6.30;;;;;;;7.92;100.00;100298.50;5053590;28;20079;-59
2023/12/21 03:23:23;;;;;;;24.65;6.38;;;;;;;7.92;100.00;100284.72;5064403;28;20051;-59
2023/12/21 03:25:48;;;;;;;22.77;6.13;;;;;;;7.95;100.00;100275.88;5069384;28;20035;-59
2023/12/21 03:28:14;;;;;;;23.92;6.78;;;;;;;7.93;100.00;100272.59;5053911;28;20036;-59
2023/12/21 03:30:39;;;;;;;22.48;5.90;;;;;;;7.92;100.00;100262.69;5067697;28;20475;-59
2023/12/21 03:33:05;;;;;;;23.42;6.50;;;;;;;7.96;100.00;100272.00;5071641;28;20020;-59
2023/12/21 03:35:30;;;;;;;21.45;6.65;;;;;;;7.95;100.00;100279.44;5061501;28;20614;-59
2023/12/21 03:37:55;;;;;;;22.42;6.03;;;;;;;7.95;100.00;100264.84;5055311;28;20029;-58
2023/12/21 03:40:21;;;;;;;23.65;6.78;;;;;;;7.95;100.00;100259.34;5057919;28;20086;-58
2023/12/21 03:42:51;;;;;;;21.88;6.10;;;;;;;7.95;100.00;100257.41;5056460;28;20392;-59
2023/12/21 03:45:17;;;;;;;23.50;6.28;;;;;;;7.96;100.00;100250.78;5072087;28;20104;-58
2023/12/21 03:47:42;;;;;;;22.30;5.75;;;;;;;7.99;100.00;100240.28;5061520;28;20535;-59
2023/12/21 03:50:08;;;;;;;22.05;5.75;;;;;;;7.96;100.00;100237.00;5061393;28;20037;-58
2023/12/21 03:52:33;;;;;;;24.08;6.35;;;;;;;7.97;100.00;100238.63;5053660;28;20467;-58
2023/12/21 03:54:59;;;;;;;24.05;5.68;;;;;;;7.97;100.00;100240.59;5063280;28;20472;-58
2023/12/21 03:57:24;;;;;;;22.25;6.45;;;;;;;8.00;100.00;100222.63;5071089;28;20049;-59
2023/12/21 03:59:49;;;;;;;23.65;6.75;;;;;;;8.03;100.00;100224.78;5058430;28;20021;-58
2023/12/21 04:02:14;;;;;;;23.65;6.47;;;;;;;7.95;100.00;100202.31;5052105;28;20557;-57
2023/12/21 04:04:40;;;;;;;23.65;6.05;;;;;;;8.00;100.00;100206.91;5049538;28;20480;-58
2023/12/21 04:07:05;;;;;;;24.85;6.22;;;;;;;8.01;100.00;100203.03;5063470;28;20024;-58
2023/12/21 04:09:30;;;;;;;19.52;6.05;;;;;;;8.02;100.00;100210.19;5070940;28;20054;-59
2023/12/21 04:11:56;;;;;;;25.10;6.30;;;;;;;8.02;100.00;100215.69;5071504;28;20039;-59
2023/12/21 04:14:21;;;;;;;23.27;6.07;;;;;;;8.00;100.00;100193.13;5052438;28;20550;-58
2023/12/21 04:16:46;;;;;;;23.98;6.07;;;;;;;8.03;100.00;100195.28;5055505;28;20079;-58
2023/12/21 04:19:11;;;;;;;24.85;6.25;;;;;;;8.04;100.00;100191.41;5046760;28;20040;-58
2023/12/21 04:21:37;;;;;;;20.88;5.70;;;;;;;8.05;100.00;100182.03;5055234;28;20039;-59
2023/12/21 04:24:02;;;;;;;23.20;6.70;;;;;;;8.06;100.00;100171.81;5067842;28;20032;-59
2023/12/21 04:26:28;;;;;;;22.35;6.07;;;;;;;8.12;100.00;100162.34;5065700;28;20021;-59
2023/12/21 04:28:53;;;;;;;21.40;6.00;;;;;;;8.10;100.00;100157.13;5051887;28;20037;-58
2023/12/21 04:31:22;;;;;;;24.38;5.97;;;;;;;8.13;100.00;100147.41;5052032;28;20029;-58
2023/12/21 04:33:49;;;;;;;23.92;6.63;;;;;;;8.14;100.00;100142.75;5062259;28;20032;-58
2023/12/21 04:36:15;;;;;;;22.27;6.47;;;;;;;8.15;100.00;100133.34;5051886;28;20039;-59
2023/12/21 04:38:40;;;;;;;22.67;6.60;;;;;;;8.18;100.00;100118.94;5070358;28;20119;-59
2023/12/21 04:41:06;;;;;;;22.40;6.82;;;;;;;8.19;100.00;100117.81;5063305;28;20394;-58
2023/12/21 04:43:31;;;;;;;23.90;6.95;;;;;;;8.20;100.00;100123.03;5062721;28;20044;-59
2023/12/21 04:45:57;;;;;;;24.98;7.65;;;;;;;8.21;100.00;100121.94;5064984;28;20031;-58
2023/12/21 04:48:22;;;;;;;26.50;7.78;;;;;;;8.25;100.00;100116.63;5062695;28;20045;-58
2023/12/21 04:50:47;;;;;;;22.63;7.63;;;;;;;8.28;100.00;100099.44;5050867;28;20091;-58
2023/12/21 04:53:13;;;;;;;23.48;7.47;;;;;;;8.29;100.00;100101.06;5054844;28;20039;-57
2023/12/21 04:55:38;;;;;;;24.13;7.07;;;;;;;8.32;100.00;100094.13;5051158;28;20112;-56
2023/12/21 04:58:03;;;;;;;22.52;7.35;;;;;;;8.32;100.00;100080.34;5066207;28;20488;-57
2023/12/21 05:00:29;;;;;;;23.77;7.20;;;;;;;8.33;100.00;100068.19;5059042;28;20028;-57
2023/12/21 05:02:55;;;;;;;25.85;6.80;;;;;;;8.38;100.00;100060.63;5067939;28;20032;-57
2023/12/21 05:05:21;;;;;;;22.48;6.57;;;;;;;8.43;100.00;100052.25;5060442;28;20033;-59
2023/12/21 05:07:46;;;;;;;26.90;7.35;;;;;;;8.45;100.00;100045.63;5067044;28;20552;-57
2023/12/21 05:10:12;;;;;;;22.65;7.15;;;;;;;8.46;100.00;100052.75;5069840;28;20111;-58
2023/12/21 05:12:37;;;;;;;23.15;7.20;;;;;;;8.49;100.00;100071.47;5071155;28;20036;-57
2023/12/21 05:15:03;;;;;;;23.17;7.03;;;;;;;8.47;100.00;100054.38;5066947;28;20115;-57
2023/12/21 05:17:28;;;;;;;24.40;6.72;;;;;;;8.51;100.00;100049.91;5060689;28;20040;-57
2023/12/21 05:19:54;;;;;;;21.13;6.00;;;;;;;8.49;100.00;100046.66;5037800;28;20037;-57
2023/12/21 05:22:19;;;;;;;21.85;6.22;;;;;;;8.50;100.00;100064.81;5068689;28;20036;-57
2023/12/21 05:24:44;;;;;;;24.80;6.43;;;;;;;8.48;100.00;100065.13;5058305;28;20074;-58
2023/12/21 05:27:10;;;;;;;22.17;6.07;;;;;;;8.50;100.00;100048.28;5057700;28;20052;-57
2023/12/21 05:29:35;;;;;;;22.30;5.93;;;;;;;8.54;100.00;100030.00;5055044;28;20024;-57
2023/12/21 05:32:00;;;;;;;23.20;6.72;;;;;;;8.53;100.00;100020.91;5054496;28;20040;-57
2023/12/21 05:34:26;;;;;;;19.88;5.25;;;;;;;8.55;100.00;100017.81;5052097;28;20368;-57
2023/12/21 05:36:51;;;;;;;22.52;5.47;;;;;;;8.53;100.00;100037.44;5064294;28;20032;-58
2023/12/21 05:39:16;;;;;;;21.60;4.80;;;;;;;8.55;100.00;100029.69;5059134;28;20032;-59
2023/12/21 05:41:42;;;;;;;21.27;4.75;;;;;;;8.58;100.00;100022.72;5049528;28;20041;-58
2023/12/21 05:44:07;;;;;;;18.05;4.25;;;;;;;8.58;100.00;100023.56;5057726;28;20369;-58
2023/12/21 05:46:33;;;;;;;18.50;4.50;;;;;;;8.58;100.00;100025.47;5055819;28;20060;-58
2023/12/21 05:48:58;;;;;;;20.13;4.35;;;;;;;8.59;100.00;100027.13;5059338;28;20035;-58
2023/12/21 05:51:24;;;;;;;17.20;4.10;;;;;;;8.57;100.00;100029.34;5036573;28;20032;-58
2023/12/21 05:53:49;;;;;;;19.45;4.10;;;;;;;8.61;100.00;100041.41;5057577;28;20025;-58
2023/12/21 05:56:14;;;;;;;17.92;4.13;;;;;;;8.62;100.00;100040.28;5059833;28;20078;-58
2023/12/21 05:58:40;;;;;;;16.27;3.80;;;;;;;8.65;100.00;100033.31;5061061;28;20488;-57
2023/12/21 06:01:05;;;;;;;17.23;4.15;;;;;;;8.69;100.00;100031.56;5058572;28;20032;-57
2023/12/21 06:03:30;;;;;;;15.25;3.75;;;;;;;8.71;100.00;100034.81;5068796;28;20036;-58
2023/12/21 06:05:56;;;;;;;15.23;3.67;;;;;;;8.73;100.00;100038.06;5062787;28;20047;-58
2023/12/21 06:08:21;;;;;;;17.75;3.65;;;;;;;8.70;100.00;100042.28;5055777;28;20029;-58
2023/12/21 06:10:46;;;;;;;16.70;3.80;;;;;;;8.71;100.00;100024.63;5059433;28;20086;-57
2023/12/21 06:13:12;;;;;;;16.83;3.88;;;;;;;8.70;100.00;100011.13;5065512;28;20404;-58
2023/12/21 06:15:37;;;;;;;18.83;3.88;;;;;;;8.69;100.00;100009.53;5064943;28;20036;-60
2023/12/21 06:18:03;;;;;;;19.35;4.05;;;;;;;8.68;100.00;100005.94;5054716;28;20408;-58
2023/12/21 06:20:30;;;;;;;15.07;3.70;;;;;;;8.62;100.00;99989.81;5062425;28;20028;-58
2023/12/21 06:22:55;;;;;;;20.05;4.85;;;;;;;8.57;100.00;99983.31;5054657;28;20045;-58
2023/12/21 06:25:21;;;;;;;14.50;3.88;;;;;;;8.55;100.00;99965.44;5062163;28;20483;-58
2023/12/21 06:27:47;;;;;;;16.58;3.90;;;;;;;8.50;100.00;99971.09;5073066;28;20112;-59
2023/12/21 06:30:12;;;;;;;16.42;4.20;;;;;;;8.52;100.00;99979.88;5059010;28;20040;-59
2023/12/21 06:32:37;;;;;;;17.80;4.65;;;;;;;8.48;100.00;99979.69;5070590;28;20361;-58
2023/12/21 06:35:03;;;;;;;18.85;4.50;;;;;;;8.45;100.00;99966.50;5058052;28;20031;-58
2023/12/21 06:37:29;;;;;;;17.98;4.82;;;;;;;8.46;100.00;99972.81;5066660;28;20031;-58
2023/12/21 06:39:54;;;;;;;19.42;4.40;;;;;;;8.45;100.00;99960.19;5057745;28;20045;-58
2023/12/21 06:42:20;;;;;;;19.77;5.28;;;;;;;8.46;100.00;99970.88;5063453;28;20024;-59
2023/12/21 06:44:45;;;;;;;20.08;4.75;;;;;;;8.46;100.00;99990.19;5066612;28;20029;-57
2023/12/21 06:47:10;;;;;;;16.42;4.70;;;;;;;8.46;100.00;99975.56;5052510;28;20537;-58
2023/12/21 06:49:36;;;;;;;20.77;5.13;;;;;;;8.48;100.00;99963.16;5054563;28;20040;-58
2023/12/21 06:52:01;;;;;;;18.05;4.78;;;;;;;8.48;100.00;99952.13;5064383;28;20032;-58
2023/12/21 06:54:27;;;;;;;18.92;5.38;;;;;;;8.49;100.00;99951.00;5053406;28;20033;-58
2023/12/21 06:56:52;;;;;;;18.15;5.00;;;;;;;8.49;100.00;99939.16;5071045;28;20045;-58
2023/12/21 06:59:17;;;;;;;19.05;5.40;;;;;;;8.50;100.00;99922.28;5059900;28;20047;-58
2023/12/21 07:01:43;;;;;;;17.70;4.75;;;;;;;8.53;100.00;99929.13;5060947;28;20032;-58
2023/12/21 07:04:08;;;;;;;16.08;4.82;;;;;;;8.50;100.00;99907.69;5051942;28;20024;-58
2023/12/21 07:06:34;;;;;;;18.65;4.63;;;;;;;8.47;100.00;99909.16;5052375;28;20052;-58
2023/12/21 07:08:59;;;;;;;17.58;4.78;;;;;;;8.49;100.00;99901.38;5069780;28;20024;-57
2023/12/21 07:11:25;;;;;;;17.92;5.47;;;;;;;8.53;100.00;99888.56;5058360;28;20048;-57
2023/12/21 07:13:50;;;;;;;19.92;5.13;;;;;;;8.53;100.00;99885.03;5051080;28;20066;-57
2023/12/21 07:16:15;;;;;;;18.83;5.00;;;;;;;8.53;100.00;99890.53;5059041;28;20475;-53
2023/12/21 07:18:41;;;;;;;17.42;4.32;;;;;;;8.55;100.00;99888.25;5070955;28;20028;-57
2023/12/21 07:21:06;;;;;;;17.95;4.35;;;;;;;8.56;100.00;99884.38;5071333;28;20101;-57
2023/12/21 07:23:31;;;;;;;18.33;4.00;;;;;;;8.57;100.00;99881.31;5066180;28;20060;-57
2023/12/21 07:25:57;;;;;;;17.75;4.10;;;;;;;8.60;100.00;99873.56;5049980;28;20033;-57
2023/12/21 07:28:23;;;;;;;16.70;4.40;;;;;;;8.60;100.00;99857.00;5044917;28;20025;-57
2023/12/21 07:30:50;;;;;;;17.15;3.95;;;;;;;8.61;100.00;99850.34;5053158;28;20025;-58
2023/12/21 07:33:16;;;;;;;17.98;4.10;;;;;;;8.63;100.00;99850.84;5057258;28;20127;-57
2023/12/21 07:35:41;;;;;;;15.65;4.10;;;;;;;8.63;100.00;99848.91;5059521;28;20448;-57
2023/12/21 07:38:06;;;;;;;19.58;4.03;;;;;;;8.64;100.00;99833.16;5058179;28;20037;-57
2023/12/21 07:40:32;;;;;;;16.83;3.78;;;;;;;8.67;100.00;99832.53;5057400;28;20025;-57
2023/12/21 07:42:57;;;;;;;20.90;4.47;;;;;;;8.69;100.00;99828.34;5060951;28;20040;-57
2023/12/21 07:45:22;;;;;;;16.50;3.65;;;;;;;8.70;100.00;99829.97;5067224;28;20038;-58
2023/12/21 07:47:48;;;;;;;18.77;4.38;;;;;;;8.74;100.00;99838.41;5058896;28;20629;-58
2023/12/21 07:50:13;;;;;;;16.83;3.80;;;;;;;8.74;100.00;99836.44;5049426;28;20033;-56
2023/12/21 07:52:39;;;;;;;20.40;3.97;;;;;;;8.74;100.00;99821.84;5063650;28;20028;-56
2023/12/21 07:55:05;;;;;;;16.40;3.47;;;;;;;8.76;100.00;99818.78;5051627;28;20024;-58
2023/12/21 07:57:30;;;;;;;15.13;3.33;;;;;;;8.74;100.00;99821.84;5053446;28;20127;-57
2023/12/21 07:59:55;;;;;;;15.00;3.60;;;;;;;8.71;100.00;99828.00;5061568;28;20050;-58
2023/12/21 08:02:21;;;;;;;17.00;4.05;;;;;;;8.72;100.00;99824.94;5063890;28;20119;-56
2023/12/21 08:04:46;;;;;;;12.20;3.55;;;;;;;8.68;100.00;99817.63;5057210;28;20087;-58
2023/12/21 08:07:11;;;;;;;18.23;3.92;;;;;;;8.69;100.00;99813.75;5049742;28;20423;-57
2023/12/21 08:09:37;;;;;;;18.80;4.22;;;;;;;8.65;100.00;99805.28;5056074;28;20057;-57
2023/12/21 08:12:02;;;;;;;18.50;4.50;;;;;;;8.66;100.00;99790.34;5068815;28;20082;-57
2023/12/21 08:14:31;;;;;;;15.25;3.92;;;;;;;8.65;100.00;99810.78;5056371;28;20116;-57
2023/12/21 08:16:59;;;;;;;13.35;3.90;;;;;;;8.65;100.00;99810.78;5066152;28;20036;-57
2023/12/21 08:19:25;;;;;;;16.70;4.43;;;;;;;8.62;100.00;99810.63;5059633;28;20032;-57
2023/12/21 08:21:50;;;;;;;16.35;4.30;;;;;;;8.63;100.00;99795.69;5049010;28;20052;-58
2023/12/21 08:24:15;;;;;;;15.93;4.00;;;;;;;8.61;100.00;99785.00;5052886;28;20028;-58
2023/12/21 08:26:41;;;;;;;12.85;3.22;;;;;;;8.67;100.00;99771.88;5059959;28;20028;-57
2023/12/21 08:29:06;;;;;;;16.13;4.10;;;;;;;8.61;100.00;99767.63;5067061;28;20036;-58
2023/12/21 08:31:32;;;;;;;16.88;4.25;;;;;;;8.64;100.00;99797.31;5048662;28;20034;-58
2023/12/21 08:33:57;;;;;;;15.43;3.30;;;;;;;8.62;100.00;99796.81;5051782;28;20383;-57
2023/12/21 08:36:23;;;;;;;12.35;3.42;;;;;;;8.72;100.00;99780.00;5049068;28;20029;-57
2023/12/21 08:38:48;;;;;;;12.27;3.60;;;;;;;8.69;100.00;99786.16;5054753;28;20540;-57
2023/12/21 08:41:13;;;;;;;11.82;3.40;;;;;;;8.71;100.00;99787.47;5066338;28;20455;-57
2023/12/21 08:43:39;;;;;;;13.07;3.30;;;;;;;8.70;100.00;99762.97;5050969;28;20029;-57
2023/12/21 08:46:04;;;;;;;14.15;3.58;;;;;;;8.74;100.00;99766.72;5051426;28;20032;-57
2023/12/21 08:48:29;;;;;;;14.98;4.32;;;;;;;8.75;100.00;99765.59;5048650;28;20032;-58
2023/12/21 08:50:55;;;;;;;14.45;3.50;;;;;;;8.75;100.00;99754.56;5048482;28;20029;-58
2023/12/21 08:53:21;;;;;;;14.13;3.38;;;;;;;8.76;100.00;99734.13;5059235;28;20017;-57
2023/12/21 08:55:46;;;;;;;14.15;3.00;;;;;;;8.78;100.00;99733.78;5068526;28;20108;-57
2023/12/21 08:58:11;;;;;;;11.88;3.00;;;;;;;8.77;100.00;99740.44;5055703;28;20047;-58
2023/12/21 09:00:37;;;;;;;15.00;3.13;;;;;;;8.78;100.00;99736.53;5048187;28;20036;-57
2023/12/21 09:03:02;;;;;;;9.35;2.70;;;;;;;8.83;100.00;99717.91;5048158;28;20029;-58
2023/12/21 09:05:28;;;;;;;10.98;2.83;;;;;;;8.88;100.00;99727.97;5048270;28;20102;-57
2023/12/21 09:07:53;;;;;;;14.18;3.53;;;;;;;8.93;100.00;99718.72;5048300;28;20053;-57
2023/12/21 09:10:19;;;;;;;15.20;3.22;;;;;;;8.92;100.00;99711.59;5057621;28;20067;-57
2023/12/21 09:12:44;;;;;;;10.60;3.03;;;;;;;8.96;100.00;99718.09;5066608;28;20032;-56
2023/12/21 09:15:09;;;;;;;13.32;3.20;;;;;;;8.98;100.00;99719.38;5068174;28;20050;-58
2023/12/21 09:17:35;;;;;;;17.05;3.17;;;;;;;9.03;100.00;99733.00;5066311;28;20511;-58
2023/12/21 09:20:02;;;;;;;13.73;2.88;;;;;;;9.10;100.00;99715.97;5051162;28;20033;-57
2023/12/21 09:22:27;;;;;;;16.10;2.90;;;;;;;9.18;100.00;99695.06;5063930;28;20040;-57
2023/12/21 09:24:53;;;;;;;12.10;2.85;;;;;;;9.24;100.00;99699.25;5049086;28;20028;-57
2023/12/21 09:27:19;;;;;;;11.32;2.60;;;;;;;9.31;100.00;99694.06;5052511;28;20029;-57
2023/12/21 09:29:44;;;;;;;12.07;2.70;;;;;;;9.36;100.00;99693.06;5049267;28;20036;-56
2023/12/21 09:32:10;;;;;;;11.20;2.60;;;;;;;9.34;100.00;99676.06;5033206;28;20564;-57
2023/12/21 09:34:35;;;;;;;14.25;2.50;;;;;;;9.31;100.00;99693.25;5026999;28;20037;-57
2023/12/21 09:37:04;;;;;;;14.50;2.50;;;;;;;9.30;100.00;99699.91;5027574;28;20441;-57
2023/12/21 09:39:30;;;;;;;11.70;2.40;;;;;;;9.32;100.00;99684.63;5023321;28;20469;-57
2023/12/21 09:42:00;;;;;;;14.20;2.60;;;;;;;9.34;100.00;99698.13;5026844;28;20057;-57
2023/12/21 09:44:27;;;;;;;14.48;2.53;;;;;;;9.39;100.00;99686.13;5029058;28;20052;-58
2023/12/21 09:46:53;;;;;;;10.52;2.30;;;;;;;9.44;100.00;99680.41;5031857;28;20039;-57
2023/12/21 09:49:20;;;;;;;17.13;2.55;;;;;;;9.49;100.00;99674.72;5031734;28;20029;-57
2023/12/21 09:51:46;;;;;;;13.98;2.58;;;;;;;9.56;100.00;99679.72;5031268;28;20058;-58
2023/12/21 09:54:14;;;;;;;13.77;2.40;;;;;;;9.63;100.00;99678.09;5054808;28;20061;-57
2023/12/21 09:56:40;;;;;;;7.28;2.13;;;;;;;9.71;100.00;99659.91;5061434;28;20045;-57
2023/12/21 09:59:07;;;;;;;11.38;1.98;;;;;;;9.74;100.00;99670.25;5068638;28;20028;-57
2023/12/21 10:01:33;;;;;;;11.45;2.30;;;;;;;9.82;100.00;99668.63;5055643;28;20087;-58
2023/12/21 10:03:58;;;;;;;11.55;2.20;;;;;;;9.86;100.00;99675.13;5051228;28;20033;-58
2023/12/21 10:06:24;;;;;;;15.95;2.83;;;;;;;9.90;100.00;99675.28;5051231;28;20029;-56
2023/12/21 10:08:50;;;;;;;15.70;2.47;;;;;;;9.87;100.00;99679.47;5051091;28;20060;-56
2023/12/21 10:11:15;;;;;;;11.18;2.30;;;;;;;9.89;100.00;99668.91;5051295;28;20028;-56
2023/12/21 10:13:48;;;;;;;14.90;2.65;;;;;;;9.88;100.00;99674.78;5049347;28;20122;-57
2023/12/21 10:16:14;;;;;;;16.90;3.08;;;;;;;9.93;100.00;99658.84;5049411;28;20025;-57
2023/12/21 10:18:41;;;;;;;13.90;2.58;;;;;;;9.98;100.00;99669.69;5047474;28;20029;-57
2023/12/21 10:21:08;;;;;;;12.13;2.15;;;;;;;10.04;100.00;99664.81;5049086;28;20044;-57
2023/12/21 10:23:33;;;;;;;15.40;2.40;;;;;;;10.08;100.00;99659.41;5049318;28;20047;-59
2023/12/21 10:25:58;;;;;;;11.75;2.00;;;;;;;10.09;100.00;99663.81;5047770;28;20481;-56
2023/12/21 10:28:24;;;;;;;15.50;2.63;;;;;;;10.11;100.00;99676.16;5050358;28;20028;-57
2023/12/21 10:30:57;;;;;;;12.93;2.08;;;;;;;10.11;100.00;99670.63;5051088;28;20071;-57
2023/12/21 10:33:25;;;;;;;12.40;2.40;;;;;;;10.15;100.00;99649.47;5050591;28;20021;-56
2023/12/21 10:35:51;;;;;;;10.02;2.25;;;;;;;10.24;100.00;99656.91;5049077;28;20028;-56
2023/12/21 10:38:18;;;;;;;9.48;2.00;;;;;;;10.27;100.00;99664.56;5050577;28;20036;-56
2023/12/21 10:40:45;;;;;;;10.88;2.05;;;;;;;10.32;100.00;99664.34;5050533;28;20117;-56
2023/12/21 10:43:10;;;;;;;9.75;2.03;;;;;;;10.39;100.00;99637.00;5050611;28;20033;-55
2023/12/21 10:45:35;;;;;;;10.00;2.15;;;;;;;10.48;100.00;99661.84;5050430;28;20029;-56
2023/12/21 10:48:11;;;;;;;9.48;1.88;;;;;;;10.47;100.00;99604.94;5048896;28;20071;-57
2023/12/21 10:50:37;;;;;;;10.90;1.90;;;;;;;10.41;100.00;99645.00;5050518;28;20497;-57
2023/12/21 10:53:04;;;;;;;10.10;1.90;;;;;;;10.33;100.00;99660.44;5050111;28;20092;-57
2023/12/21 10:55:30;;;;;;;12.25;2.33;;;;;;;10.19;100.00;99652.38;5050065;28;20033;-59
2023/12/21 10:57:56;;;;;;;12.15;2.30;;;;;;;10.14;100.00;99647.06;5050370;28;20102;-58
2023/12/21 11:00:22;;;;;;;15.27;2.10;;;;;;;10.12;100.00;99639.06;5049999;28;20037;-58
2023/12/21 11:02:48;;;;;;;12.48;2.22;;;;;;;10.13;100.00;99637.16;5050325;28;20040;-58
2023/12/21 11:05:22;;;;;;;10.68;1.88;;;;;;;10.15;100.00;99626.56;5050833;28;20136;-57
2023/12/21 11:07:53;;;;;;;9.68;2.00;;;;;;;10.14;100.00;99634.03;5049880;28;20548;-56
2023/12/21 11:10:22;;;;;;;7.65;1.80;;;;;;;10.12;100.00;99630.00;5050265;28;20041;-57
2023/12/21 11:12:48;;;;;;;9.48;1.67;;;;;;;10.14;100.00;99642.31;5053160;28;20508;-57